Time;durP1;ratioP1;P1;durP2;ratioP2;P2;SDS_P1;SDS_P2;PMS_P1;PMS_P2;Temp;Humidity;BMP_temperature;BMP_pressure;BME280_temperature;BME280_humidity;BME280_pressure;Samples;Min_cycle;Max_cycle;Signal;HPM_P1;HPM_P2
2022/12/30 00:01:43;;;;;;;4.47;2.00;;;;;;;5.49;100.00;96911.41;5039240;28;20662;-68
2022/12/30 00:04:10;;;;;;;2.47;1.70;;;;;;;5.46;100.00;96922.19;4999514;28;20294;-69
2022/12/30 00:06:38;;;;;;;1.87;1.73;;;;;;;5.46;100.00;96926.66;5032543;28;20211;-69
2022/12/30 00:09:07;;;;;;;1.70;1.60;;;;;;;5.45;100.00;96919.75;5040418;28;20195;-69
2022/12/30 00:11:35;;;;;;;1.30;1.30;;;;;;;5.26;100.00;96903.22;5041565;28;20685;-70
2022/12/30 00:33:43;;;;;;;0.80;0.80;;;;;;;4.63;100.00;96916.50;5045662;28;20199;-69
2022/12/30 00:36:11;;;;;;;1.60;0.77;;;;;;;4.54;100.00;96909.53;4997793;28;20372;-70
2022/12/30 00:38:38;;;;;;;0.93;0.93;;;;;;;4.55;100.00;96911.19;5038847;28;20234;-72
2022/12/30 00:43:52;;;;;;;0.70;0.70;;;;;;;4.49;100.00;96896.88;5003426;28;20453;-69
2022/12/30 00:46:20;;;;;;;1.20;0.70;;;;;;;4.46;100.00;96904.25;5040178;28;20317;-71
2022/12/30 00:57:05;;;;;;;0.67;0.67;;;;;;;4.38;100.00;96910.22;5033875;28;20229;-69
2022/12/30 00:59:32;;;;;;;0.90;0.80;;;;;;;4.50;100.00;96916.06;5037090;28;20765;-70
2022/12/30 01:02:00;;;;;;;0.83;0.83;;;;;;;4.52;100.00;96927.25;5027591;28;20235;-69
2022/12/30 01:04:28;;;;;;;1.13;1.07;;;;;;;4.42;100.00;96918.63;5036447;28;20291;-68
2022/12/30 01:06:56;;;;;;;1.17;0.80;;;;;;;4.45;100.00;96926.19;4989930;28;20239;-69
2022/12/30 01:09:23;;;;;;;0.50;0.50;;;;;;;4.37;100.00;96931.38;5037345;28;20203;-72
2022/12/30 01:14:34;;;;;;;0.70;0.70;;;;;;;4.20;100.00;96945.19;5043384;28;20203;-71
2022/12/30 01:17:02;;;;;;;1.17;0.80;;;;;;;4.20;100.00;96954.81;5030708;28;20215;-68
2022/12/30 01:19:29;;;;;;;0.63;0.63;;;;;;;4.12;100.00;96952.94;5041349;28;20708;-71
2022/12/30 01:21:57;;;;;;;0.63;0.63;;;;;;;4.13;100.00;96964.25;4987528;28;20234;-69
2022/12/30 01:24:25;;;;;;;1.47;0.83;;;;;;;4.13;100.00;96959.03;5041652;28;20675;-69
2022/12/30 01:26:52;;;;;;;1.00;0.97;;;;;;;4.18;100.00;96956.78;5040569;28;20335;-68
2022/12/30 01:29:22;;;;;;;0.60;0.60;;;;;;;4.17;100.00;96961.22;5043422;28;20826;-71
2022/12/30 01:31:54;;;;;;;0.93;0.73;;;;;;;4.17;100.00;96957.75;5043569;28;20199;-69
2022/12/30 01:34:22;;;;;;;0.80;0.80;;;;;;;4.24;100.00;96958.00;5044491;28;20355;-72
2022/12/30 01:36:49;;;;;;;1.60;0.70;;;;;;;4.22;100.00;96965.19;5001680;28;20448;-69
2022/12/30 01:39:17;;;;;;;0.67;0.67;;;;;;;4.15;100.00;96964.94;5041126;28;20389;-69
2022/12/30 01:41:45;;;;;;;0.83;0.80;;;;;;;4.09;100.00;96965.53;5042855;28;20448;-70
2022/12/30 01:44:48;;;;;;;0.50;0.50;;;;;;;4.09;100.00;96970.78;5044428;28;20829;-70
2022/12/30 01:47:18;;;;;;;0.70;0.60;;;;;;;4.05;100.00;96968.47;5040544;28;20379;-70
2022/12/30 01:49:47;;;;;;;4.37;0.90;;;;;;;4.00;100.00;96967.25;5042448;28;20203;-67
2022/12/30 01:52:16;;;;;;;1.90;1.00;;;;;;;3.99;100.00;96963.81;5000260;28;20220;-70
2022/12/30 01:54:44;;;;;;;2.17;1.03;;;;;;;3.99;100.00;96963.81;5043448;28;20203;-71
2022/12/30 01:57:12;;;;;;;1.03;1.03;;;;;;;4.01;100.00;96961.88;4996472;28;20543;-70
2022/12/30 01:59:39;;;;;;;1.30;0.80;;;;;;;4.00;100.00;96964.63;5041253;28;20210;-68
2022/12/30 02:02:07;;;;;;;2.23;0.80;;;;;;;3.97;100.00;96963.09;5046926;28;20590;-70
2022/12/30 02:04:36;;;;;;;2.20;1.17;;;;;;;3.98;100.00;96958.69;5042329;28;20281;-69
2022/12/30 02:07:07;;;;;;;1.17;1.07;;;;;;;3.96;100.00;96963.28;5045059;28;20765;-70
2022/12/30 02:09:35;;;;;;;2.40;1.07;;;;;;;3.93;100.00;96967.00;5041914;28;20195;-68
2022/12/30 02:12:05;;;;;;;0.70;0.70;;;;;;;3.94;100.00;96973.88;5005451;28;20432;-69
2022/12/30 02:14:35;;;;;;;1.40;0.80;;;;;;;3.92;100.00;96973.22;5043170;28;20208;-68
2022/12/30 02:17:06;;;;;;;0.80;0.80;;;;;;;3.93;100.00;96963.56;5046084;28;20254;-70
2022/12/30 02:19:58;;;;;;;0.90;0.90;;;;;;;3.93;100.00;96974.06;5044573;28;20203;-68
2022/12/30 02:22:32;;;;;;;1.17;0.90;;;;;;;3.95;100.00;96978.16;5044527;28;20298;-69
2022/12/30 02:25:34;;;;;;;0.90;0.90;;;;;;;3.91;100.00;96968.94;5043343;28;20336;-69
2022/12/30 02:28:33;;;;;;;1.10;1.10;;;;;;;3.90;100.00;96981.25;5026183;28;20308;-70
2022/12/30 02:31:17;;;;;;;1.37;0.93;;;;;;;3.90;100.00;96975.16;5041085;28;20211;-70
2022/12/30 02:33:51;;;;;;;1.43;0.80;;;;;;;3.90;100.00;96967.28;5040373;28;20312;-67
2022/12/30 02:36:22;;;;;;;1.33;1.30;;;;;;;3.87;100.00;96971.06;5043277;28;20665;-69
2022/12/30 02:38:54;;;;;;;0.83;0.83;;;;;;;3.83;100.00;96961.00;5040629;28;20610;-70
2022/12/30 02:47:05;;;;;;;0.80;0.80;;;;;;;3.78;100.00;96982.38;5040873;28;20219;-71
2022/12/30 02:49:34;;;;;;;4.43;1.53;;;;;;;3.79;100.00;96996.34;5049542;28;20211;-67
2022/12/30 02:52:14;;;;;;;1.33;0.70;;;;;;;3.76;100.00;96998.28;5044340;28;20443;-71
2022/12/30 02:54:42;;;;;;;1.33;1.00;;;;;;;3.76;100.00;97005.28;5055535;28;20219;-68
2022/12/30 02:57:24;;;;;;;0.97;0.97;;;;;;;3.76;100.00;97003.50;5054308;28;20249;-71
2022/12/30 03:05:38;;;;;;;1.43;0.93;;;;;;;3.77;100.00;96999.09;5053665;28;20305;-68
2022/12/30 03:08:16;;;;;;;1.27;1.03;;;;;;;3.74;100.00;97000.22;5050202;28;20226;-68
2022/12/30 03:13:35;;;;;;;1.20;1.20;;;;;;;3.74;100.00;97015.09;5008268;28;21338;-70
2022/12/30 03:16:07;;;;;;;1.37;1.20;;;;;;;3.75;100.00;97030.69;5048331;28;20209;-70
2022/12/30 03:18:38;;;;;;;1.47;1.00;;;;;;;3.80;100.00;97032.91;5047977;28;20286;-70
2022/12/30 03:21:06;;;;;;;3.00;1.03;;;;;;;3.78;100.00;97037.44;5044150;28;20269;-68
2022/12/30 03:29:19;;;;;;;1.23;1.13;;;;;;;3.96;100.00;97027.00;5004444;28;20225;-68
2022/12/30 03:31:47;;;;;;;0.93;0.93;;;;;;;3.89;100.00;97018.06;5040366;28;20911;-70
2022/12/30 03:34:16;;;;;;;1.33;0.87;;;;;;;3.84;100.00;97036.88;5035971;28;20203;-68
2022/12/30 03:36:47;;;;;;;1.10;1.00;;;;;;;3.84;100.00;97036.03;5042857;28;20194;-69
2022/12/30 03:39:18;;;;;;;2.47;1.30;;;;;;;3.80;100.00;97032.91;5041239;28;20210;-68
2022/12/30 03:41:48;;;;;;;1.17;1.07;;;;;;;3.86;100.00;97041.94;5031506;28;20682;-70
2022/12/30 03:44:16;;;;;;;1.20;1.10;;;;;;;3.83;100.00;97042.25;5006691;28;20249;-68
2022/12/30 03:46:45;;;;;;;0.73;0.73;;;;;;;3.86;100.00;97047.19;5039725;28;20226;-70
2022/12/30 03:49:14;;;;;;;2.83;1.03;;;;;;;3.86;100.00;97042.78;5041951;28;20222;-69
2022/12/30 03:51:43;;;;;;;0.97;0.97;;;;;;;3.77;100.00;97043.63;5042152;28;20574;-69
2022/12/30 03:54:10;;;;;;;1.97;1.30;;;;;;;3.76;100.00;97047.22;5042006;28;20207;-68
2022/12/30 03:56:38;;;;;;;0.90;0.90;;;;;;;3.82;100.00;97064.19;5043489;28;20401;-70
2022/12/30 03:59:05;;;;;;;1.23;1.13;;;;;;;3.81;100.00;97065.16;5046209;28;21146;-67
2022/12/30 04:01:33;;;;;;;1.00;1.00;;;;;;;3.81;100.00;97060.75;5002045;28;20397;-70
2022/12/30 04:04:01;;;;;;;1.10;1.10;;;;;;;3.76;100.00;97061.16;4973012;28;20305;-70
2022/12/30 04:06:28;;;;;;;2.07;1.43;;;;;;;3.75;100.00;97062.16;5037371;28;20497;-70
2022/12/30 04:08:57;;;;;;;1.43;1.33;;;;;;;3.76;100.00;97058.56;5035851;28;20825;-70
2022/12/30 04:11:25;;;;;;;1.20;1.20;;;;;;;3.72;100.00;97057.19;5028297;28;20444;-70
2022/12/30 04:13:52;;;;;;;1.53;1.43;;;;;;;3.71;100.00;97055.53;5034544;28;20216;-69
2022/12/30 04:16:20;;;;;;;1.43;1.33;;;;;;;3.69;100.00;97054.84;5025518;28;20440;-70
2022/12/30 04:18:48;;;;;;;1.53;1.40;;;;;;;3.66;100.00;97049.91;4980503;28;20465;-70
2022/12/30 04:21:16;;;;;;;1.87;1.77;;;;;;;3.68;100.00;97045.34;5038786;28;20295;-70
2022/12/30 04:23:43;;;;;;;1.70;1.60;;;;;;;3.73;100.00;97045.75;5040208;28;20219;-70
2022/12/30 04:26:12;;;;;;;2.13;1.93;;;;;;;3.71;100.00;97047.69;5036306;28;20215;-68
2022/12/30 04:28:40;;;;;;;1.63;1.63;;;;;;;3.71;100.00;97049.47;5041456;28;20227;-69
2022/12/30 04:31:08;;;;;;;2.13;2.03;;;;;;;3.74;100.00;97060.50;5005210;28;20401;-68
2022/12/30 04:33:36;;;;;;;2.53;2.33;;;;;;;3.76;100.00;97076.06;5027282;28;20214;-71
2022/12/30 04:36:04;;;;;;;2.40;2.30;;;;;;;3.81;100.00;97070.41;4997326;28;20621;-69
2022/12/30 04:38:31;;;;;;;2.30;2.20;;;;;;;3.76;100.00;97069.03;5039891;28;21039;-71
2022/12/30 04:40:59;;;;;;;3.13;2.50;;;;;;;3.77;100.00;97085.56;5040295;28;20206;-70
2022/12/30 04:43:28;;;;;;;2.70;2.60;;;;;;;3.73;100.00;97078.97;5037424;28;20204;-72
2022/12/30 04:45:55;;;;;;;2.60;2.50;;;;;;;3.73;100.00;97078.97;5040593;28;22237;-70
2022/12/30 04:48:23;;;;;;;2.60;2.40;;;;;;;3.67;100.00;97083.00;4994087;28;20545;-69
2022/12/30 04:50:50;;;;;;;3.53;2.80;;;;;;;3.65;100.00;97082.31;5001175;28;20212;-71
2022/12/30 04:53:18;;;;;;;2.80;2.60;;;;;;;3.59;100.00;97083.72;5029281;28;20952;-71
2022/12/30 04:55:46;;;;;;;2.93;2.80;;;;;;;3.68;100.00;97094.28;5042603;28;20212;-71
2022/12/30 04:58:13;;;;;;;3.30;2.90;;;;;;;3.69;100.00;97093.31;5045384;28;20242;-70
2022/12/30 05:00:42;;;;;;;2.90;2.80;;;;;;;3.72;100.00;97093.03;5018550;28;20718;-69
2022/12/30 05:03:10;;;;;;;3.17;2.97;;;;;;;3.72;100.00;97095.66;5033182;28;20671;-70
2022/12/30 05:05:37;;;;;;;3.13;2.93;;;;;;;3.70;100.00;97100.22;4987884;28;20214;-69
2022/12/30 05:08:05;;;;;;;3.70;3.40;;;;;;;3.71;100.00;97100.09;5040990;28;20222;-70
2022/12/30 05:10:34;;;;;;;3.27;3.10;;;;;;;3.74;100.00;97106.81;5047706;28;20649;-68
2022/12/30 05:13:01;;;;;;;3.90;3.50;;;;;;;3.78;100.00;97115.25;5045254;28;20557;-69
2022/12/30 05:15:29;;;;;;;3.27;3.07;;;;;;;3.79;100.00;97117.72;5029465;28;20315;-68
2022/12/30 05:17:58;;;;;;;4.07;3.77;;;;;;;3.84;100.00;97119.91;5032095;28;20246;-72
2022/12/30 05:20:25;;;;;;;3.70;3.40;;;;;;;3.86;100.00;97126.66;5030228;28;20437;-71
2022/12/30 05:22:53;;;;;;;3.80;3.60;;;;;;;3.87;100.00;97122.25;4998253;28;20215;-70
2022/12/30 05:28:06;;;;;;;3.20;3.10;;;;;;;3.83;100.00;97124.34;5041210;28;20427;-68
2022/12/30 05:30:33;;;;;;;4.00;3.20;;;;;;;3.84;100.00;97127.75;5042892;28;20411;-70
2022/12/30 05:33:02;;;;;;;4.03;3.70;;;;;;;3.81;100.00;97118.41;5044135;28;20983;-68
2022/12/30 05:35:30;;;;;;;3.53;3.33;;;;;;;3.85;100.00;97125.03;5018000;28;20207;-70
2022/12/30 05:37:58;;;;;;;3.30;3.13;;;;;;;3.84;100.00;97125.16;4998876;28;20233;-69
2022/12/30 05:40:25;;;;;;;3.07;2.93;;;;;;;3.81;100.00;97125.44;5043396;28;20304;-70
2022/12/30 05:42:53;;;;;;;3.30;3.10;;;;;;;3.81;100.00;97123.66;5047328;28;20547;-70
2022/12/30 05:45:20;;;;;;;3.60;3.30;;;;;;;3.80;100.00;97131.66;5040163;28;20243;-70
2022/12/30 05:47:48;;;;;;;4.00;3.70;;;;;;;3.80;100.00;97136.88;5043610;28;20369;-70
2022/12/30 05:50:17;;;;;;;3.23;3.03;;;;;;;3.78;100.00;97141.44;5010751;28;20219;-67
2022/12/30 05:52:44;;;;;;;3.83;3.57;;;;;;;3.70;100.00;97131.66;5038837;28;20203;-69
2022/12/30 05:55:12;;;;;;;4.57;4.17;;;;;;;3.67;100.00;97122.31;4997161;28;20259;-68
2022/12/30 05:57:40;;;;;;;3.70;3.50;;;;;;;3.69;100.00;97127.38;5040203;28;20233;-70
2022/12/30 06:00:09;;;;;;;3.70;3.33;;;;;;;3.62;100.00;97127.16;5042385;28;20214;-67
2022/12/30 06:02:36;;;;;;;3.67;3.27;;;;;;;3.63;100.00;97134.03;5039009;28;20278;-70
2022/12/30 06:05:08;;;;;;;4.50;4.20;;;;;;;3.60;100.00;97116.81;5021110;28;20227;-68
2022/12/30 06:07:37;;;;;;;4.47;4.07;;;;;;;3.60;100.00;97116.81;5020879;28;20444;-70
2022/12/30 06:10:07;;;;;;;3.73;3.43;;;;;;;3.57;100.00;97117.09;4997031;28;20222;-70
2022/12/30 06:12:34;;;;;;;4.17;3.80;;;;;;;3.54;100.00;97121.78;4990697;28;20447;-68
2022/12/30 06:15:02;;;;;;;3.27;3.07;;;;;;;3.47;100.00;97124.16;5039612;28;20200;-70
2022/12/30 06:17:30;;;;;;;3.83;3.57;;;;;;;3.45;100.00;97133.94;5037857;28;20222;-70
2022/12/30 06:19:57;;;;;;;3.83;3.50;;;;;;;3.38;100.00;97131.03;5023842;28;20444;-70
2022/12/30 06:22:25;;;;;;;3.73;3.43;;;;;;;3.29;100.00;97134.50;5039716;28;20971;-69
2022/12/30 06:24:54;;;;;;;3.77;3.47;;;;;;;3.16;100.00;97129.53;5007085;28;20452;-70
2022/12/30 06:27:21;;;;;;;3.77;3.57;;;;;;;3.07;100.00;97123.34;5006056;28;20621;-71
2022/12/30 06:29:49;;;;;;;4.70;3.47;;;;;;;2.94;100.00;97130.66;5038131;28;20694;-70
2022/12/30 06:32:16;;;;;;;4.90;3.73;;;;;;;2.86;100.00;97128.69;5036783;28;20196;-69
2022/12/30 06:34:44;;;;;;;4.30;4.00;;;;;;;2.70;100.00;97130.06;5032417;28;20203;-70
2022/12/30 06:37:11;;;;;;;5.53;4.70;;;;;;;2.61;100.00;97133.47;5043921;28;20332;-71
2022/12/30 06:39:39;;;;;;;4.30;3.90;;;;;;;2.58;100.00;97138.97;5032249;28;20202;-72
2022/12/30 06:42:08;;;;;;;5.90;3.97;;;;;;;2.50;100.00;97144.91;5012517;28;20202;-69
2022/12/30 06:44:36;;;;;;;4.70;4.30;;;;;;;2.39;100.00;97158.06;5042359;28;20745;-70
2022/12/30 06:47:04;;;;;;;4.03;3.73;;;;;;;2.25;100.00;97162.72;5037627;28;20221;-69
2022/12/30 06:49:31;;;;;;;5.37;4.87;;;;;;;2.24;100.00;97150.59;5034682;28;20237;-70
2022/12/30 06:51:59;;;;;;;5.00;4.60;;;;;;;2.23;100.00;97158.56;5038227;28;20893;-70
2022/12/30 06:54:26;;;;;;;5.00;4.60;;;;;;;2.24;100.00;97149.75;5027453;28;20382;-70
2022/12/30 06:56:54;;;;;;;5.43;5.03;;;;;;;2.27;100.00;97144.25;5038548;28;20766;-68
2022/12/30 06:59:23;;;;;;;7.57;5.57;;;;;;;2.28;100.00;97157.22;4995350;28;20407;-70
2022/12/30 07:01:50;;;;;;;10.53;7.70;;;;;;;2.21;100.00;97152.63;5037582;28;20210;-69
2022/12/30 07:04:18;;;;;;;5.97;5.40;;;;;;;2.18;100.00;97143.28;5037902;28;20310;-67
2022/12/30 07:06:45;;;;;;;21.63;18.53;;;;;;;2.17;100.00;97139.03;5039911;28;20645;-71
2022/12/30 07:09:13;;;;;;;20.23;17.20;;;;;;;2.09;100.00;97152.75;5024508;28;20921;-70
2022/12/30 07:11:41;;;;;;;9.83;8.83;;;;;;;1.96;100.00;97157.38;5043068;28;20302;-70
2022/12/30 07:14:08;;;;;;;6.07;5.63;;;;;;;1.92;100.00;97163.81;4995034;28;20214;-71
2022/12/30 07:16:37;;;;;;;6.43;5.97;;;;;;;1.92;100.00;97164.63;5038002;28;20203;-72
2022/12/30 07:19:05;;;;;;;13.27;11.17;;;;;;;1.90;100.00;97152.66;5045966;28;20246;-68
2022/12/30 07:21:33;;;;;;;18.47;16.53;;;;;;;1.85;100.00;97150.44;5041971;28;20707;-69
2022/12/30 07:24:01;;;;;;;13.20;11.87;;;;;;;1.82;100.00;97150.69;5027330;28;20215;-70
2022/12/30 07:26:28;;;;;;;7.70;6.60;;;;;;;1.92;100.00;97158.59;5037069;28;20726;-70
2022/12/30 07:28:56;;;;;;;9.27;8.57;;;;;;;1.93;100.00;97158.44;5028695;28;20406;-69
2022/12/30 07:31:24;;;;;;;11.03;7.43;;;;;;;2.01;100.00;97165.63;5020615;28;20678;-71
2022/12/30 07:33:53;;;;;;;7.37;6.77;;;;;;;2.14;100.00;97173.28;5044452;28;20295;-70
2022/12/30 07:36:20;;;;;;;9.70;8.80;;;;;;;2.27;100.00;97176.47;5042375;28;20203;-71
2022/12/30 07:38:48;;;;;;;12.10;9.37;;;;;;;2.39;100.00;97181.59;5043735;28;20227;-71
2022/12/30 07:41:16;;;;;;;8.43;7.70;;;;;;;2.48;100.00;97173.00;5026794;28;20415;-70
2022/12/30 07:43:43;;;;;;;8.57;7.77;;;;;;;2.45;100.00;97173.22;5035279;28;20241;-72
2022/12/30 07:46:11;;;;;;;8.83;8.03;;;;;;;2.39;100.00;97181.59;5000456;28;20512;-71
2022/12/30 07:48:38;;;;;;;8.00;7.27;;;;;;;2.39;100.00;97184.22;5047958;28;20229;-71
2022/12/30 07:51:08;;;;;;;8.00;7.33;;;;;;;2.40;100.00;97185.88;5039489;28;20459;-71
2022/12/30 07:53:36;;;;;;;9.43;7.47;;;;;;;2.39;100.00;97195.53;5039698;28;20309;-71
2022/12/30 07:56:05;;;;;;;7.07;6.53;;;;;;;2.37;100.00;97191.38;5017373;28;20214;-69
2022/12/30 07:58:33;;;;;;;8.00;7.27;;;;;;;2.36;100.00;97192.34;5047148;28;20507;-71
2022/12/30 08:01:03;;;;;;;8.63;7.70;;;;;;;2.43;100.00;97183.84;4997947;28;20219;-69
2022/12/30 08:03:31;;;;;;;9.10;8.07;;;;;;;2.55;100.00;97195.03;5043377;28;20210;-71
2022/12/30 08:06:04;;;;;;;9.23;8.30;;;;;;;2.63;100.00;97201.38;5037907;28;20630;-70
2022/12/30 08:08:33;;;;;;;10.77;8.97;;;;;;;2.70;100.00;97197.25;5039129;28;20221;-70
2022/12/30 08:11:02;;;;;;;9.63;8.50;;;;;;;2.80;100.00;97192.06;5021891;28;20215;-70
2022/12/30 08:13:31;;;;;;;11.10;10.00;;;;;;;2.83;100.00;97189.97;5042077;28;20206;-69
2022/12/30 08:15:59;;;;;;;10.17;9.03;;;;;;;2.97;100.00;97188.75;5001035;28;20580;-71
2022/12/30 08:18:27;;;;;;;10.90;9.90;;;;;;;2.96;100.00;97196.78;5038295;28;20304;-70
2022/12/30 08:21:00;;;;;;;10.30;9.20;;;;;;;2.94;100.00;97196.06;4996059;28;20210;-68
2022/12/30 08:23:29;;;;;;;9.17;8.27;;;;;;;3.00;100.00;97195.53;5037851;28;20214;-71
2022/12/30 08:26:04;;;;;;;8.70;7.90;;;;;;;3.10;100.00;97198.97;5041350;28;20226;-68
2022/12/30 08:28:31;;;;;;;8.30;7.60;;;;;;;3.08;100.00;97187.00;5045448;28;20230;-70
2022/12/30 08:30:59;;;;;;;8.13;7.20;;;;;;;3.25;100.00;97198.59;5040519;28;20202;-68
2022/12/30 08:33:26;;;;;;;8.73;7.93;;;;;;;3.33;100.00;97196.91;5025793;28;20211;-70
2022/12/30 08:36:00;;;;;;;8.10;7.30;;;;;;;3.43;100.00;97185.63;5000833;28;20206;-70
2022/12/30 08:38:28;;;;;;;7.63;6.83;;;;;;;3.39;100.00;97187.69;5038640;28;20231;-71
2022/12/30 08:41:05;;;;;;;8.00;7.30;;;;;;;3.45;100.00;97188.94;5042844;28;20194;-70
2022/12/30 08:43:33;;;;;;;9.77;6.57;;;;;;;3.48;100.00;97193.91;5042696;28;20202;-71
2022/12/30 08:46:00;;;;;;;7.23;6.53;;;;;;;3.50;100.00;97199.00;5017400;28;20245;-72
2022/12/30 08:48:28;;;;;;;6.27;5.77;;;;;;;3.57;100.00;97197.47;5038011;28;20804;-71
2022/12/30 08:50:55;;;;;;;7.40;6.37;;;;;;;3.58;100.00;97192.09;4987351;28;20835;-69
2022/12/30 08:53:26;;;;;;;7.27;6.57;;;;;;;3.59;100.00;97198.16;5035892;28;20204;-71
2022/12/30 08:56:02;;;;;;;6.57;6.07;;;;;;;3.64;100.00;97205.59;5019280;28;20195;-70
2022/12/30 08:58:31;;;;;;;5.67;5.27;;;;;;;3.67;100.00;97200.91;5039950;28;20620;-69
2022/12/30 09:00:58;;;;;;;6.00;5.50;;;;;;;3.72;100.00;97203.09;5039732;28;20313;-71
2022/12/30 09:03:27;;;;;;;5.63;5.13;;;;;;;3.68;100.00;97201.72;5037000;28;20671;-71
2022/12/30 09:05:56;;;;;;;5.60;5.20;;;;;;;3.72;100.00;97203.94;4996482;28;20763;-67
2022/12/30 09:08:29;;;;;;;6.63;5.20;;;;;;;3.72;100.00;97198.69;5033557;28;20226;-70
2022/12/30 09:11:01;;;;;;;5.87;5.27;;;;;;;3.75;100.00;97195.81;5016638;28;23080;-68
2022/12/30 09:13:30;;;;;;;4.80;4.50;;;;;;;3.81;100.00;97201.44;5040005;28;20210;-71
2022/12/30 09:15:59;;;;;;;4.60;4.30;;;;;;;3.84;100.00;97191.50;5034896;28;20996;-70
2022/12/30 09:18:26;;;;;;;5.03;4.63;;;;;;;3.91;100.00;97191.75;5039165;28;20223;-71
2022/12/30 09:20:54;;;;;;;4.10;3.87;;;;;;;4.03;100.00;97189.81;5034405;28;20640;-71
2022/12/30 09:23:21;;;;;;;4.67;4.37;;;;;;;4.05;100.00;97193.94;4992713;28;20516;-71
2022/12/30 09:25:49;;;;;;;6.13;3.87;;;;;;;4.08;100.00;97184.13;5020153;28;20208;-68
2022/12/30 09:28:17;;;;;;;4.40;4.10;;;;;;;4.05;100.00;97191.31;5039466;28;20232;-69
2022/12/30 09:30:45;;;;;;;4.57;4.17;;;;;;;4.09;100.00;97173.50;5036573;28;20207;-68
2022/12/30 09:33:13;;;;;;;4.57;4.27;;;;;;;4.19;100.00;97166.44;5038319;28;20207;-70
2022/12/30 09:35:41;;;;;;;4.10;3.80;;;;;;;4.13;100.00;97153.88;5038968;28;20202;-68
2022/12/30 09:38:08;;;;;;;5.33;4.83;;;;;;;4.17;100.00;97163.13;4993136;28;21040;-71
2022/12/30 09:40:50;;;;;;;4.27;3.83;;;;;;;4.15;100.00;97157.19;5037771;28;20208;-67
2022/12/30 09:43:23;;;;;;;4.37;4.07;;;;;;;4.23;100.00;97160.91;5018809;28;20546;-71
2022/12/30 09:46:06;;;;;;;4.37;4.13;;;;;;;4.12;100.00;97156.66;5038634;28;20330;-68
2022/12/30 09:48:38;;;;;;;4.33;4.03;;;;;;;4.16;100.00;97161.47;5039991;28;20226;-70
2022/12/30 09:51:10;;;;;;;4.57;4.37;;;;;;;4.28;100.00;97167.34;5038426;28;20905;-68
2022/12/30 09:53:42;;;;;;;5.40;5.10;;;;;;;4.16;100.00;97158.03;5000248;28;20223;-68
2022/12/30 09:56:14;;;;;;;5.00;4.70;;;;;;;4.14;100.00;97168.63;5037136;28;20254;-70
2022/12/30 09:58:44;;;;;;;5.90;5.40;;;;;;;4.23;100.00;97166.97;5024097;28;20241;-67
2022/12/30 10:01:23;;;;;;;5.50;5.10;;;;;;;4.24;100.00;97165.19;5040270;28;20207;-69
2022/12/30 10:03:52;;;;;;;5.40;5.00;;;;;;;4.04;100.00;97157.38;5041122;28;20288;-68
2022/12/30 10:06:29;;;;;;;6.27;5.87;;;;;;;4.20;100.00;97156.75;5039239;28;20330;-71
2022/12/30 10:09:16;;;;;;;6.33;6.03;;;;;;;4.03;100.00;97150.47;4999188;28;21609;-68
2022/12/30 10:11:52;;;;;;;5.87;5.57;;;;;;;4.11;100.00;97149.75;5031791;28;20553;-68
2022/12/30 10:14:26;;;;;;;5.80;5.40;;;;;;;4.20;100.00;97148.91;5040919;28;20404;-70
2022/12/30 10:17:06;;;;;;;5.87;5.57;;;;;;;4.12;100.00;97141.75;5037693;28;20413;-70
2022/12/30 10:19:43;;;;;;;6.40;6.00;;;;;;;4.09;100.00;97130.72;5043964;28;20210;-68
2022/12/30 10:22:16;;;;;;;6.00;5.60;;;;;;;4.02;100.00;97130.47;5033764;28;20215;-68
2022/12/30 10:24:53;;;;;;;5.80;5.50;;;;;;;4.05;100.00;97117.06;4995802;28;20242;-68
2022/12/30 10:27:22;;;;;;;6.40;6.00;;;;;;;4.12;100.00;97125.19;4993127;28;20447;-68
2022/12/30 10:29:50;;;;;;;6.30;5.87;;;;;;;4.12;100.00;97114.69;5040660;28;20206;-70
2022/12/30 10:32:29;;;;;;;6.33;5.93;;;;;;;4.19;100.00;97115.78;5035865;28;20203;-68
2022/12/30 10:35:03;;;;;;;5.37;5.07;;;;;;;4.11;100.00;97102.56;5039859;28;20211;-70
2022/12/30 10:37:32;;;;;;;4.80;4.50;;;;;;;4.27;100.00;97094.88;5029221;28;20242;-68
2022/12/30 10:40:01;;;;;;;4.10;3.80;;;;;;;4.27;100.00;97092.25;5038007;28;20209;-68
2022/12/30 10:42:42;;;;;;;5.40;4.97;;;;;;;4.21;100.00;97087.59;4984166;28;20219;-68
2022/12/30 10:45:29;;;;;;;4.17;3.97;;;;;;;4.33;100.00;97083.00;5035523;28;20206;-68
2022/12/30 10:48:17;;;;;;;4.07;3.87;;;;;;;4.19;100.00;97074.66;5043253;28;20664;-68
2022/12/30 10:50:46;;;;;;;3.77;3.57;;;;;;;4.23;100.00;97064.69;5036745;28;20233;-71
2022/12/30 10:53:17;;;;;;;4.33;4.03;;;;;;;4.40;100.00;97064.88;5034491;28;20228;-67
2022/12/30 10:55:47;;;;;;;4.43;4.23;;;;;;;4.40;100.00;97065.69;5039332;28;20554;-70
2022/12/30 10:58:23;;;;;;;3.50;3.30;;;;;;;4.43;100.00;97065.38;4975152;28;20229;-68
2022/12/30 11:00:51;;;;;;;3.67;3.47;;;;;;;4.41;100.00;97056.84;5040884;28;20581;-69
2022/12/30 11:03:27;;;;;;;3.60;3.40;;;;;;;4.56;100.00;97062.41;5036590;28;20696;-68
2022/12/30 11:05:54;;;;;;;3.37;3.17;;;;;;;4.49;100.00;97058.72;5039866;28;20260;-70
2022/12/30 11:08:25;;;;;;;3.07;2.97;;;;;;;4.64;100.00;97051.97;5034095;28;20332;-68
2022/12/30 11:10:59;;;;;;;2.70;2.60;;;;;;;4.61;100.00;97052.28;5039128;28;20200;-68
2022/12/30 11:16:13;;;;;;;2.87;2.77;;;;;;;4.81;100.00;97028.53;5034421;28;20245;-68
2022/12/30 11:18:45;;;;;;;3.00;2.90;;;;;;;4.98;100.00;97021.59;5038862;28;20585;-70
2022/12/30 11:21:13;;;;;;;3.23;3.10;;;;;;;4.91;100.00;97010.03;5040594;28;20678;-67
2022/12/30 11:23:41;;;;;;;2.93;2.83;;;;;;;4.75;100.00;97016.00;5042172;28;20205;-71
2022/12/30 11:26:17;;;;;;;3.17;3.07;;;;;;;4.68;100.00;97017.56;5036469;28;20210;-67
2022/12/30 11:28:47;;;;;;;3.53;3.33;;;;;;;4.95;100.00;97003.53;4976649;28;20863;-69
2022/12/30 11:31:16;;;;;;;3.70;3.50;;;;;;;4.82;100.00;97006.53;5038719;28;20587;-67
2022/12/30 11:33:48;;;;;;;3.80;3.60;;;;;;;4.88;100.00;97003.31;5040012;28;20354;-71
2022/12/30 11:36:20;;;;;;;3.67;3.47;;;;;;;4.97;100.00;96998.09;5032474;28;20611;-68
2022/12/30 11:38:48;;;;;;;4.20;3.90;;;;;;;4.87;100.00;96988.53;5038864;28;20835;-71
2022/12/30 11:41:27;;;;;;;3.50;3.30;;;;;;;5.18;100.00;96987.25;5035524;28;20215;-68
2022/12/30 11:44:14;;;;;;;3.10;3.00;;;;;;;4.95;100.00;96986.94;5000188;28;20504;-69
2022/12/30 11:46:44;;;;;;;3.57;3.37;;;;;;;5.02;100.00;96980.09;5034658;28;20456;-68
2022/12/30 11:49:26;;;;;;;3.80;3.53;;;;;;;5.03;100.00;96972.06;5042464;28;20253;-69
2022/12/30 11:51:56;;;;;;;3.77;3.57;;;;;;;5.21;100.00;96972.00;5042913;28;20203;-71
2022/12/30 11:54:25;;;;;;;3.83;3.63;;;;;;;5.13;100.00;96971.13;5039602;28;20230;-68
2022/12/30 11:56:54;;;;;;;3.67;3.47;;;;;;;5.35;100.00;96962.75;5043651;28;20218;-70
2022/12/30 11:59:24;;;;;;;5.07;4.77;;;;;;;5.35;100.00;96956.66;4990248;28;20225;-68
2022/12/30 12:01:54;;;;;;;5.77;5.37;;;;;;;5.57;100.00;96952.63;5047321;28;20278;-71
2022/12/30 12:04:37;;;;;;;6.40;5.90;;;;;;;5.67;100.00;96949.06;5042852;28;20449;-69
2022/12/30 12:07:10;;;;;;;6.13;5.80;;;;;;;5.66;100.00;96940.38;5042197;28;20233;-71
2022/12/30 12:09:40;;;;;;;5.93;5.50;;;;;;;5.69;100.00;96931.34;5023095;28;20437;-69
2022/12/30 12:12:11;;;;;;;5.70;5.30;;;;;;;5.56;100.00;96934.41;5043392;28;20207;-69
2022/12/30 12:14:54;;;;;;;5.43;5.13;;;;;;;5.58;100.00;96928.00;5006071;28;20322;-69
2022/12/30 12:17:29;;;;;;;5.00;4.70;;;;;;;5.53;100.00;96921.59;5035307;28;20231;-70
2022/12/30 12:20:00;;;;;;;4.80;4.60;;;;;;;5.69;100.00;96929.53;5047339;28;20203;-71
2022/12/30 12:22:33;;;;;;;4.67;4.37;;;;;;;5.78;100.00;96925.94;5042133;28;20211;-70
2022/12/30 12:25:04;;;;;;;4.43;4.23;;;;;;;5.79;100.00;96922.31;5046973;28;20204;-71
2022/12/30 12:27:32;;;;;;;3.40;3.23;;;;;;;6.01;100.00;96928.00;5042562;28;20475;-71
2022/12/30 12:29:59;;;;;;;3.20;3.00;;;;;;;5.95;100.00;96918.09;5044611;28;20679;-71
2022/12/30 12:33:05;;;;;;;2.70;2.60;;;;;;;5.89;100.00;96927.44;4995005;28;20214;-71
2022/12/30 12:35:41;;;;;;;2.10;2.00;;;;;;;5.92;100.00;96910.53;5000659;28;20207;-69
2022/12/30 12:38:24;;;;;;;2.40;2.30;;;;;;;5.95;100.00;96923.38;5043282;28;20816;-69
2022/12/30 12:41:15;;;;;;;2.40;2.20;;;;;;;5.83;100.00;96914.94;5038598;28;20199;-68
2022/12/30 12:43:54;;;;;;;1.93;1.83;;;;;;;5.76;100.00;96909.50;5046248;28;20198;-69
2022/12/30 12:46:30;;;;;;;2.50;2.40;;;;;;;5.85;100.00;96909.50;5026609;28;20583;-72